Unity Plaza, Connecticut
Current Conditions -  °F | °C
As of 8:53 AM on Thursday 27 Nov 2014 (Local Time) from KHFD Reporting Station
Overcast Overcast  
Wind Chill: 30°   Ceiling: 3600
Heat Index: 34°   Visibility: 10mi
Dew Point: 28°   Wind: 5mph
Humidity: 79%   Direction: NA
Pressure: 29.97"   Gusts: NA
Location:  41.7893°N, 72.6669°W
Report Text: KHFD 271353Z VRB04KT 10SM OVC036 01/M02 A2997 RMK AO2 SLP149 T00111022
Loading
Personal Weather Stations






























Interactive Weather Map New forecast layout! Learn more

10-Day Weather Forecast

Advertisements
Track Severe Weather on mobile